Time,TemperatureF,DewpointF,PressureIn,WindDirection,WindDirectionDegrees,WindSpeedMPH,WindSpeedGustMPH,Humidity,HourlyPrecipIn,Conditions,Clouds,dailyrainin,SoftwareType,DateUTC
2013-10-12 00:23:00,71.0,67.0,29.87,South,186,0.0,-999.0,86,-99.99,,,-99.99,,2013-10-12 05:23:00,
2013-10-12 00:52:00,71.0,67.0,29.86,SE,136,0.0,-999.0,87,-99.99,,,-99.99,,2013-10-12 05:52:00,
2013-10-12 01:22:00,70.0,66.0,29.86,East,90,0.0,-999.0,88,-99.99,,,-99.99,,2013-10-12 06:22:00,
2013-10-12 01:52:00,70.0,66.0,29.86,SSE,168,0.0,-999.0,88,-99.99,,,-99.99,,2013-10-12 06:52:00,
2013-10-12 02:22:00,69.0,65.0,29.86,South,176,0.0,-999.0,87,-99.99,,,-99.99,,2013-10-12 07:22:00,
2013-10-12 02:52:00,69.0,65.0,29.86,SSE,155,0.0,-999.0,88,-99.99,,,-99.99,,2013-10-12 07:52:00,
2013-10-12 03:22:00,69.0,66.0,29.87,SE,134,0.0,-999.0,89,-99.99,,,-99.99,,2013-10-12 08:22:00,
2013-10-12 03:52:00,68.0,65.0,29.87,SSE,168,0.0,-999.0,90,-99.99,,,-99.99,,2013-10-12 08:52:00,
2013-10-12 04:21:00,69.0,66.0,29.87,SSE,165,0.0,-999.0,90,-99.99,,,-99.99,,2013-10-12 09:21:00,
2013-10-12 04:54:00,70.0,67.0,29.91,WSW,251,1.0,-999.0,89,-99.99,,,-99.99,,2013-10-12 09:54:00,
2013-10-12 05:23:00,67.0,62.0,29.92,West,278,1.0,-999.0,85,-99.99,,,-99.99,,2013-10-12 10:23:00,
2013-10-12 05:52:00,61.0,54.0,29.94,WNW,288,1.0,-999.0,78,-99.99,,,-99.99,,2013-10-12 10:52:00,
2013-10-12 06:22:00,60.0,53.0,29.96,NNW,339,1.0,-999.0,77,-99.99,,,-99.99,,2013-10-12 11:22:00,
2013-10-12 06:52:00,60.0,52.0,29.98,North,353,1.0,-999.0,76,-99.99,,,-99.99,,2013-10-12 11:52:00,
2013-10-12 07:22:00,59.0,51.0,29.99,North,354,1.0,-999.0,75,-99.99,,,-99.99,,2013-10-12 12:22:00,
2013-10-12 07:52:00,58.0,50.0,30.01,WSW,241,1.0,-999.0,76,-99.99,,,-99.99,,2013-10-12 12:52:00,
2013-10-12 08:21:00,58.0,50.0,30.01,NW,322,1.0,-999.0,76,-99.99,,,-99.99,,2013-10-12 13:21:00,
2013-10-12 08:52:00,58.0,50.0,30.04,NW,326,1.0,-999.0,76,-99.99,,,-99.99,,2013-10-12 13:52:00,
2013-10-12 09:21:00,58.0,50.0,30.05,NW,325,0.0,-999.0,75,-99.99,,,-99.99,,2013-10-12 14:21:00,
2013-10-12 09:52:00,59.0,51.0,30.06,NW,323,0.0,-999.0,74,-99.99,,,-99.99,,2013-10-12 14:52:00,
2013-10-12 10:22:00,61.0,52.0,30.06,NNW,344,1.0,-999.0,71,-99.99,,,-99.99,,2013-10-12 15:22:00,
2013-10-12 10:54:00,62.0,51.0,30.07,ENE,71,1.0,-999.0,68,-99.99,,,-99.99,,2013-10-12 15:54:00,
2013-10-12 11:23:00,64.0,53.0,30.08,NNW,343,0.0,-999.0,68,-99.99,,,-99.99,,2013-10-12 16:23:00,
2013-10-12 11:53:00,65.0,56.0,30.09,ENE,58,0.0,-999.0,72,-99.99,,,-99.99,,2013-10-12 16:53:00,
2013-10-12 12:23:00,66.0,57.0,30.09,NNW,328,0.0,-999.0,72,-99.99,,,-99.99,,2013-10-12 17:23:00,
2013-10-12 12:53:00,68.0,57.0,30.09,NE,40,0.0,-999.0,67,-99.99,,,-99.99,,2013-10-12 17:53:00,
2013-10-12 13:22:00,69.0,55.0,30.09,ENE,69,0.0,-999.0,62,-99.99,,,-99.99,,2013-10-12 18:22:00,
2013-10-12 13:52:00,71.0,57.0,30.07,ENE,65,1.0,-999.0,61,-99.99,,,-99.99,,2013-10-12 18:52:00,
2013-10-12 14:22:00,72.0,56.0,30.07,East,85,0.0,-999.0,58,-99.99,,,-99.99,,2013-10-12 19:22:00,
2013-10-12 14:52:00,72.0,54.0,30.06,North,353,0.0,-999.0,54,-99.99,,,-99.99,,2013-10-12 19:52:00,
2013-10-12 15:22:00,72.0,54.0,30.06,ENE,75,1.0,-999.0,53,-99.99,,,-99.99,,2013-10-12 20:22:00,
2013-10-12 15:52:00,72.0,53.0,30.06,NE,41,1.0,-999.0,52,-99.99,,,-99.99,,2013-10-12 20:52:00,
2013-10-12 16:22:00,73.0,54.0,30.06,ENE,66,1.0,-999.0,52,-99.99,,,-99.99,,2013-10-12 21:22:00,
2013-10-12 16:54:00,73.0,53.0,30.06,NNW,343,1.0,-999.0,49,-99.99,,,-99.99,,2013-10-12 21:54:00,
2013-10-12 17:24:00,72.0,51.0,30.05,WNW,302,1.0,-999.0,48,-99.99,,,-99.99,,2013-10-12 22:24:00,
2013-10-12 17:54:00,72.0,51.0,30.05,ENE,61,0.0,-999.0,48,-99.99,,,-99.99,,2013-10-12 22:54:00,
2013-10-12 18:22:00,71.0,51.0,30.06,West,278,0.0,-999.0,49,-99.99,,,-99.99,,2013-10-12 23:22:00,
2013-10-12 18:52:00,69.0,50.0,30.07,NE,48,0.0,-999.0,51,-99.99,,,-99.99,,2013-10-12 23:52:00,
2013-10-12 19:22:00,68.0,51.0,30.09,NNW,330,0.0,-999.0,55,-99.99,,,-99.99,,2013-10-13 00:22:00,
2013-10-12 19:52:00,67.0,50.0,30.09,North,360,0.0,-999.0,55,-99.99,,,-99.99,,2013-10-13 00:52:00,
2013-10-12 20:22:00,67.0,50.0,30.11,North,360,0.0,-999.0,55,-99.99,,,-99.99,,2013-10-13 01:22:00,
2013-10-12 20:52:00,66.0,49.0,30.12,ENE,58,0.0,-999.0,55,-99.99,,,-99.99,,2013-10-13 01:52:00,
2013-10-12 21:22:00,66.0,50.0,30.13,NE,48,0.0,-999.0,56,-99.99,,,-99.99,,2013-10-13 02:22:00,
2013-10-12 21:52:00,66.0,50.0,30.14,NNW,332,0.0,-999.0,57,-99.99,,,-99.99,,2013-10-13 02:52:00,
2013-10-12 22:22:00,66.0,50.0,30.15,ENE,65,0.0,-999.0,57,-99.99,,,-99.99,,2013-10-13 03:22:00,
2013-10-12 22:54:00,66.0,51.0,30.14,ENE,61,0.0,-999.0,58,-99.99,,,-99.99,,2013-10-13 03:54:00,
2013-10-12 23:02:00,-999.0,-99.9,30.14,ENE,69,0.0,-999.0,-999,-99.99,,,-99.99,,2013-10-13 04:02:00,
2013-10-12 23:23:00,65.0,50.0,30.15,ENE,78,0.0,-999.0,59,-99.99,,,-99.99,,2013-10-13 04:23:00,
2013-10-12 23:54:00,65.0,50.0,30.14,North,357,0.0,-999.0,59,-99.99,,,-99.99,,2013-10-13 04:54:00,